Time;durP1;ratioP1;P1;durP2;ratioP2;P2;SDS_P1;SDS_P2;PMS_P1;PMS_P2;Temp;Humidity;BMP_temperature;BMP_pressure;BME280_temperature;BME280_humidity;BME280_pressure;Samples;Min_cycle;Max_cycle;Signal;HPM_P1;HPM_P2
2022/12/31 00:00:57;;;;;;;2.50;1.70;;;;;;;;;;5086926;28;20445;-71
2022/12/31 00:03:23;;;;;;;2.13;1.67;;;;;;;;;;5083567;28;20051;-71
2022/12/31 00:05:50;;;;;;;2.63;1.60;;;;;;;;;;5092088;28;20048;-71
2022/12/31 00:08:16;;;;;;;2.33;1.60;;;;;;;;;;5083835;28;20040;-72
2022/12/31 00:10:42;;;;;;;1.88;1.50;;;;;;;;;;5094298;28;20058;-75
2022/12/31 00:13:09;;;;;;;2.33;1.58;;;;;;;;;;5074521;28;20048;-73
2022/12/31 00:15:36;;;;;;;1.95;1.35;;;;;;;;;;5092895;28;20465;-73
2022/12/31 00:18:02;;;;;;;2.47;1.10;;;;;;;;;;5084308;28;20050;-72
2022/12/31 00:20:28;;;;;;;1.33;0.80;;;;;;;;;;5082663;28;20051;-72
2022/12/31 00:22:55;;;;;;;1.45;0.88;;;;;;;;;;5091251;28;20480;-74
2022/12/31 00:25:21;;;;;;;1.15;0.70;;;;;;;;;;5090251;28;20431;-72
2022/12/31 00:27:48;;;;;;;1.08;0.70;;;;;;;;;;5084500;28;20330;-72
2022/12/31 00:30:14;;;;;;;1.45;0.80;;;;;;;;;;5069860;28;20052;-71
2022/12/31 00:32:40;;;;;;;2.42;0.80;;;;;;;;;;5080143;28;20054;-71
2022/12/31 00:35:07;;;;;;;2.05;1.00;;;;;;;;;;5094040;28;20068;-71
2022/12/31 00:37:33;;;;;;;1.13;0.90;;;;;;;;;;5086606;28;20058;-72
2022/12/31 00:39:59;;;;;;;2.80;1.10;;;;;;;;;;5091582;27;20044;-74
2022/12/31 00:42:26;;;;;;;1.50;1.02;;;;;;;;;;5085982;28;20489;-73
2022/12/31 00:44:52;;;;;;;1.95;0.95;;;;;;;;;;5088405;27;20044;-72
2022/12/31 00:47:18;;;;;;;2.05;1.25;;;;;;;;;;5061000;28;20048;-72
2022/12/31 00:49:45;;;;;;;1.50;1.10;;;;;;;;;;5090992;27;20606;-74
2022/12/31 00:52:14;;;;;;;19.85;1.80;;;;;;;;;;5072299;28;20043;-74
2022/12/31 00:54:40;;;;;;;7.28;1.20;;;;;;;;;;5073423;28;20048;-74
2022/12/31 00:57:07;;;;;;;1.30;0.70;;;;;;;;;;5094277;28;20075;-76
2022/12/31 00:59:33;;;;;;;2.88;1.10;;;;;;;;;;5086281;27;20476;-72
2022/12/31 01:02:00;;;;;;;1.63;0.82;;;;;;;;;;5088083;28;20043;-72
2022/12/31 01:04:26;;;;;;;1.10;1.00;;;;;;;;;;5093431;28;20480;-72
2022/12/31 01:06:52;;;;;;;2.55;1.23;;;;;;;;;;5087280;28;20074;-71
2022/12/31 01:09:19;;;;;;;4.30;1.33;;;;;;;;;;5092289;28;20040;-73
2022/12/31 01:11:48;;;;;;;2.67;1.55;;;;;;;;;;5087683;28;20319;-73
2022/12/31 01:14:14;;;;;;;;;;;;;;;;;;5089671;27;20036;-72
2022/12/31 01:16:42;;;;;;;1.40;1.30;;;;;;;;;;5085901;27;19927;-72
2022/12/31 01:19:10;;;;;;;2.65;1.52;;;;;;;;;;5090643;28;20051;-73
2022/12/31 01:21:38;;;;;;;5.18;1.70;;;;;;;;;;5095872;28;20460;-70
2022/12/31 01:24:05;;;;;;;3.10;1.27;;;;;;;;;;5086072;28;20158;-72
2022/12/31 01:26:31;;;;;;;3.55;1.17;;;;;;;;;;5091787;27;20085;-71
2022/12/31 01:28:57;;;;;;;1.98;1.33;;;;;;;;;;5077803;28;20040;-71
2022/12/31 01:31:24;;;;;;;2.60;1.30;;;;;;;;;;5094439;27;20044;-73
2022/12/31 01:33:51;;;;;;;2.78;1.20;;;;;;;;;;5094864;28;20055;-73
2022/12/31 01:36:18;;;;;;;2.22;1.55;;;;;;;;;;5085065;27;20837;-73
2022/12/31 01:38:51;;;;;;;1.88;1.08;;;;;;;;;;5091549;28;20048;-73
2022/12/31 01:41:18;;;;;;;2.45;1.20;;;;;;;;;;5079566;27;20048;-72
2022/12/31 01:43:49;;;;;;;2.67;1.27;;;;;;;;;;5088259;28;20419;-72
2022/12/31 01:46:51;;;;;;;2.42;1.17;;;;;;;;;;5090673;27;20485;-70
2022/12/31 01:49:17;;;;;;;3.50;1.30;;;;;;;;;;5012258;28;20049;-71
2022/12/31 01:51:46;;;;;;;3.38;1.33;;;;;;;;;;5005942;28;20046;-71
2022/12/31 01:54:13;;;;;;;2.88;1.17;;;;;;;;;;5006406;28;20069;-72
2022/12/31 01:56:40;;;;;;;1.33;1.00;;;;;;;;;;4999107;28;20072;-71
2022/12/31 01:59:08;;;;;;;2.72;1.25;;;;;;;;;;5004950;28;20060;-72
2022/12/31 02:01:35;;;;;;;4.63;1.40;;;;;;;;;;5007216;28;20050;-72
2022/12/31 02:04:08;;;;;;;3.72;1.60;;;;;;;;;;5001208;28;20058;-71
2022/12/31 02:06:37;;;;;;;2.65;1.45;;;;;;;;;;5007890;28;20105;-72
2022/12/31 02:09:03;;;;;;;2.47;1.02;;;;;;;;;;5001133;28;20046;-72
2022/12/31 02:11:36;;;;;;;3.90;1.50;;;;;;;;;;4987162;28;20426;-71
2022/12/31 02:14:08;;;;;;;1.73;1.30;;;;;;;;;;5010385;28;20058;-72
2022/12/31 02:16:40;;;;;;;3.95;1.60;;;;;;;;;;5003698;28;20092;-69
2022/12/31 02:19:09;;;;;;;2.08;1.35;;;;;;;;;;5004362;28;20049;-69
2022/12/31 02:21:42;;;;;;;3.45;1.50;;;;;;;;;;5003686;28;20494;-70
2022/12/31 02:24:27;;;;;;;5.53;1.50;;;;;;;;;;5055304;28;20124;-70
2022/12/31 02:27:17;;;;;;;2.25;1.30;;;;;;;;;;5084858;28;20048;-71
2022/12/31 02:30:02;;;;;;;3.55;1.30;;;;;;;;;;5093224;28;20048;-71
2022/12/31 02:32:31;;;;;;;2.28;1.40;;;;;;;;;;5090771;28;20055;-71
2022/12/31 02:35:00;;;;;;;3.38;1.27;;;;;;;;;;5091692;28;20059;-71
2022/12/31 02:37:26;;;;;;;;;;;;;;;;;;5095222;28;20120;-71
2022/12/31 02:39:53;;;;;;;2.88;1.30;;;;;;;;;;5088870;27;19969;-70
2022/12/31 02:42:19;;;;;;;3.20;1.20;;;;;;;;;;5092963;28;20044;-70
2022/12/31 02:44:45;;;;;;;3.17;1.25;;;;;;;;;;5087974;28;20105;-71
2022/12/31 02:47:21;;;;;;;2.88;1.27;;;;;;;;;;5087837;28;20931;-71
2022/12/31 02:49:50;;;;;;;1.27;1.08;;;;;;;;;;5092650;28;20052;-70
2022/12/31 02:52:23;;;;;;;3.20;1.33;;;;;;;;;;5075204;28;20052;-71
2022/12/31 02:54:55;;;;;;;3.15;1.10;;;;;;;;;;5093987;27;20054;-71
2022/12/31 02:57:27;;;;;;;2.30;1.13;;;;;;;;;;5073421;28;20055;-71
2022/12/31 03:02:52;;;;;;;4.70;1.45;;;;;;;;;;5070181;28;20051;-70
2022/12/31 03:05:21;;;;;;;3.08;1.70;;;;;;;;;;5088371;28;20307;-70
2022/12/31 03:07:48;;;;;;;2.42;1.58;;;;;;;;;;5080793;28;20063;-68
2022/12/31 03:10:14;;;;;;;3.88;1.52;;;;;;;;;;5096091;27;20044;-67
2022/12/31 03:12:45;;;;;;;2.03;1.35;;;;;;;;;;5091371;28;20054;-67
2022/12/31 03:15:21;;;;;;;5.53;1.40;;;;;;;;;;5086188;28;20508;-66
2022/12/31 03:17:47;;;;;;;2.42;1.17;;;;;;;;;;5093074;28;20135;-66
2022/12/31 03:22:59;;;;;;;3.72;1.00;;;;;;;;;;5100544;28;20043;-66
2022/12/31 03:25:34;;;;;;;2.92;1.02;;;;;;;;;;5096174;28;20044;-66
2022/12/31 03:28:02;;;;;;;3.67;1.38;;;;;;;;;;5089278;28;20419;-66
2022/12/31 03:30:29;;;;;;;4.70;1.58;;;;;;;;;;5103360;28;20051;-66
2022/12/31 03:32:55;;;;;;;2.50;1.30;;;;;;;;;;5085949;28;20132;-67
2022/12/31 03:35:22;;;;;;;5.38;1.40;;;;;;;;;;5097192;28;20052;-70
2022/12/31 03:37:49;;;;;;;3.35;1.45;;;;;;;;;;5090361;28;20488;-70
2022/12/31 03:40:15;;;;;;;5.72;1.45;;;;;;;;;;5087913;28;20047;-70
2022/12/31 03:42:42;;;;;;;5.15;1.60;;;;;;;;;;5097142;28;20128;-70
2022/12/31 03:45:09;;;;;;;5.47;1.80;;;;;;;;;;5106647;28;20070;-70
2022/12/31 03:47:35;;;;;;;5.57;2.70;;;;;;;;;;5105394;28;20051;-70
2022/12/31 03:50:02;;;;;;;3.83;1.80;;;;;;;;;;5076382;28;20775;-70
2022/12/31 03:52:28;;;;;;;3.97;2.20;;;;;;;;;;5100761;27;20049;-70
2022/12/31 03:54:54;;;;;;;4.25;2.10;;;;;;;;;;5099271;27;20054;-69
2022/12/31 03:57:21;;;;;;;5.40;2.42;;;;;;;;;;5096546;28;20055;-72
2022/12/31 03:59:47;;;;;;;4.70;2.90;;;;;;;;;;5087155;28;20044;-69
2022/12/31 04:02:14;;;;;;;7.40;2.90;;;;;;;;;;5102014;28;20047;-69
2022/12/31 04:04:40;;;;;;;6.95;3.38;;;;;;;;;;5086035;28;20051;-69
2022/12/31 04:07:06;;;;;;;6.55;4.18;;;;;;;;;;5085289;27;20048;-71
2022/12/31 04:09:33;;;;;;;6.85;4.30;;;;;;;;;;5102482;28;20040;-72
2022/12/31 04:11:59;;;;;;;11.63;4.80;;;;;;;;;;5099729;28;20075;-69
2022/12/31 04:14:25;;;;;;;8.90;4.38;;;;;;;;;;5110318;28;20058;-69
2022/12/31 04:16:51;;;;;;;6.60;4.38;;;;;;;;;;5087340;28;20131;-69
2022/12/31 04:19:18;;;;;;;6.65;3.42;;;;;;;;;;5087058;28;20036;-69
2022/12/31 04:21:44;;;;;;;4.75;3.03;;;;;;;;;;5089207;28;20095;-69
2022/12/31 04:24:10;;;;;;;4.97;3.22;;;;;;;;;;5099255;28;20514;-69
2022/12/31 04:26:37;;;;;;;4.93;3.00;;;;;;;;;;5105757;28;20051;-72
2022/12/31 04:29:03;;;;;;;4.53;2.75;;;;;;;;;;5090130;28;20077;-69
2022/12/31 04:31:30;;;;;;;5.40;2.60;;;;;;;;;;5099915;28;20044;-69
2022/12/31 04:33:56;;;;;;;4.47;2.65;;;;;;;;;;5097913;28;20063;-69
2022/12/31 04:36:22;;;;;;;4.82;3.15;;;;;;;;;;5082706;28;20052;-69
2022/12/31 04:38:49;;;;;;;5.28;3.67;;;;;;;;;;5092788;28;20491;-69
2022/12/31 04:41:18;;;;;;;5.07;3.15;;;;;;;;;;5093076;28;20488;-69
2022/12/31 04:43:44;;;;;;;5.35;3.50;;;;;;;;;;5101430;28;20084;-69
2022/12/31 04:46:11;;;;;;;6.22;3.20;;;;;;;;;;5082308;28;20579;-69
2022/12/31 04:48:38;;;;;;;4.32;2.90;;;;;;;;;;5093024;28;20062;-69
2022/12/31 04:51:04;;;;;;;4.03;2.70;;;;;;;;;;5105034;28;20055;-68
2022/12/31 04:53:31;;;;;;;2.65;1.92;;;;;;;;;;5093485;28;20059;-68
2022/12/31 04:55:57;;;;;;;2.55;1.95;;;;;;;;;;5101028;28;20738;-69
2022/12/31 04:58:23;;;;;;;3.08;2.08;;;;;;;;;;5093401;28;20455;-69
2022/12/31 05:00:51;;;;;;;2.85;2.00;;;;;;;;;;5089596;28;20043;-70
2022/12/31 05:03:17;;;;;;;3.80;2.28;;;;;;;;;;5092822;28;20051;-68
2022/12/31 05:05:44;;;;;;;2.42;1.90;;;;;;;;;;5104430;28;20596;-69
2022/12/31 05:08:10;;;;;;;2.72;2.20;;;;;;;;;;5097413;28;20040;-69
2022/12/31 05:10:40;;;;;;;2.30;1.80;;;;;;;;;;5091370;28;20512;-71
2022/12/31 05:13:06;;;;;;;2.72;1.60;;;;;;;;;;5098527;28;20055;-69
2022/12/31 05:15:32;;;;;;;2.00;1.67;;;;;;;;;;5093321;28;20569;-69
2022/12/31 05:17:59;;;;;;;1.38;1.27;;;;;;;;;;5091825;28;20055;-68
2022/12/31 05:20:25;;;;;;;1.30;1.13;;;;;;;;;;5099724;28;20154;-71
2022/12/31 05:22:51;;;;;;;2.03;1.25;;;;;;;;;;5099537;28;20059;-69
2022/12/31 05:25:17;;;;;;;1.15;0.90;;;;;;;;;;5101699;28;20048;-69
2022/12/31 05:27:44;;;;;;;0.90;0.77;;;;;;;;;;5094112;28;20565;-68
2022/12/31 05:30:10;;;;;;;0.52;0.52;;;;;;;;;;5099330;28;20047;-69
2022/12/31 05:32:37;;;;;;;0.60;0.52;;;;;;;;;;5087887;28;20312;-69
2022/12/31 05:35:04;;;;;;;1.30;0.50;;;;;;;;;;5091594;28;20667;-71
2022/12/31 05:37:30;;;;;;;0.63;0.43;;;;;;;;;;5100360;28;20055;-68
2022/12/31 05:39:57;;;;;;;0.50;0.40;;;;;;;;;;5097727;28;20055;-68
2022/12/31 05:42:23;;;;;;;0.50;0.50;;;;;;;;;;5100738;28;20392;-68
2022/12/31 05:44:50;;;;;;;0.40;0.40;;;;;;;;;;5098214;27;20043;-68
2022/12/31 05:47:16;;;;;;;0.50;0.50;;;;;;;;;;5097092;27;20074;-68
2022/12/31 05:49:43;;;;;;;0.40;0.40;;;;;;;;;;5093846;28;20054;-68
2022/12/31 05:52:09;;;;;;;0.68;0.45;;;;;;;;;;5085824;28;20055;-68
2022/12/31 05:54:35;;;;;;;0.63;0.40;;;;;;;;;;5096705;28;20044;-68
2022/12/31 05:57:03;;;;;;;0.50;0.50;;;;;;;;;;5082354;28;20063;-68
2022/12/31 05:59:29;;;;;;;0.68;0.47;;;;;;;;;;5096670;28;20044;-69
2022/12/31 06:01:56;;;;;;;0.40;0.40;;;;;;;;;;5087499;28;20048;-68
2022/12/31 06:04:22;;;;;;;0.30;0.30;;;;;;;;;;5081812;28;20096;-69
2022/12/31 06:06:48;;;;;;;0.40;0.40;;;;;;;;;;5095075;28;20043;-70
2022/12/31 06:09:16;;;;;;;0.50;0.40;;;;;;;;;;5086051;28;20071;-68
2022/12/31 06:11:42;;;;;;;0.40;0.40;;;;;;;;;;5103117;28;20102;-68
2022/12/31 06:14:09;;;;;;;0.65;0.40;;;;;;;;;;5101404;27;20145;-68
2022/12/31 06:16:36;;;;;;;0.95;0.43;;;;;;;;;;5099572;27;20051;-68
2022/12/31 06:19:02;;;;;;;0.60;0.60;;;;;;;;;;5081649;27;20062;-68
2022/12/31 06:21:28;;;;;;;0.50;0.50;;;;;;;;;;5098208;28;20057;-68
2022/12/31 06:23:55;;;;;;;0.63;0.60;;;;;;;;;;5099359;28;20055;-68
2022/12/31 06:26:21;;;;;;;0.77;0.60;;;;;;;;;;5093776;28;20043;-69
2022/12/31 06:28:47;;;;;;;0.70;0.55;;;;;;;;;;5090044;28;20043;-69
2022/12/31 06:31:14;;;;;;;0.55;0.55;;;;;;;;;;5087672;28;20074;-68
2022/12/31 06:33:40;;;;;;;0.50;0.50;;;;;;;;;;5094433;28;20039;-68
2022/12/31 06:36:08;;;;;;;1.13;0.60;;;;;;;;;;5091016;28;20413;-69
2022/12/31 06:38:37;;;;;;;0.52;0.50;;;;;;;;;;5093755;28;20096;-69
2022/12/31 06:41:03;;;;;;;0.43;0.43;;;;;;;;;;5095308;27;20285;-69
2022/12/31 06:43:30;;;;;;;0.47;0.47;;;;;;;;;;5087163;28;20058;-69
2022/12/31 06:46:00;;;;;;;4.43;0.90;;;;;;;;;;5088435;28;20056;-69
2022/12/31 06:48:27;;;;;;;2.03;0.60;;;;;;;;;;5079203;28;20083;-68
2022/12/31 06:50:53;;;;;;;0.80;0.50;;;;;;;;;;5091447;28;20480;-69
2022/12/31 06:53:20;;;;;;;0.80;0.60;;;;;;;;;;5093089;28;20044;-68
2022/12/31 06:55:47;;;;;;;2.08;0.65;;;;;;;;;;5079221;28;20503;-69
2022/12/31 06:58:14;;;;;;;1.02;0.63;;;;;;;;;;5098912;28;20079;-68
2022/12/31 07:00:44;;;;;;;0.60;0.60;;;;;;;;;;5089602;28;20052;-69
2022/12/31 07:03:25;;;;;;;2.38;0.77;;;;;;;;;;5094196;28;20044;-68
2022/12/31 07:05:57;;;;;;;1.98;1.10;;;;;;;;;;5082265;28;20058;-69
2022/12/31 07:08:29;;;;;;;1.90;0.80;;;;;;;;;;5090888;28;20651;-69
2022/12/31 07:11:07;;;;;;;1.55;0.77;;;;;;;;;;5062592;28;20043;-68
2022/12/31 07:13:52;;;;;;;1.13;0.80;;;;;;;;;;5090803;27;20357;-68
2022/12/31 07:16:28;;;;;;;0.70;0.70;;;;;;;;;;5096068;28;20130;-68
2022/12/31 07:19:13;;;;;;;1.65;0.95;;;;;;;;;;5070884;28;20043;-68
2022/12/31 07:21:40;;;;;;;1.30;0.90;;;;;;;;;;5099854;28;20131;-68
2022/12/31 07:24:07;;;;;;;1.65;1.10;;;;;;;;;;5094614;28;20063;-68
2022/12/31 07:26:48;;;;;;;1.60;1.10;;;;;;;;;;5089924;28;20051;-68
2022/12/31 07:29:40;;;;;;;2.47;0.88;;;;;;;;;;5081419;28;20469;-68
2022/12/31 07:32:25;;;;;;;2.20;1.00;;;;;;;;;;5092885;28;20717;-69
2022/12/31 07:35:00;;;;;;;1.77;1.08;;;;;;;;;;5084454;28;20039;-68
2022/12/31 07:37:53;;;;;;;1.23;1.13;;;;;;;;;;5090944;28;20557;-69
2022/12/31 07:40:48;;;;;;;2.80;1.23;;;;;;;;;;5074468;28;20048;-69
2022/12/31 07:43:34;;;;;;;2.38;1.08;;;;;;;;;;5031390;28;20045;-68
2022/12/31 07:46:06;;;;;;;2.05;1.05;;;;;;;;;;5076957;28;20047;-70
2022/12/31 07:48:33;;;;;;;2.25;1.10;;;;;;;;;;5099828;27;20054;-69
2022/12/31 07:51:00;;;;;;;1.27;0.93;;;;;;;;;;5090457;28;20058;-69
2022/12/31 07:53:27;;;;;;;1.75;1.10;;;;;;;;;;5076524;28;20059;-70
2022/12/31 07:56:00;;;;;;;3.03;1.00;;;;;;;;;;5092492;28;20055;-70
2022/12/31 07:58:38;;;;;;;3.53;0.80;;;;;;;;;;5099741;28;20044;-69
2022/12/31 08:01:12;;;;;;;2.10;0.85;;;;;;;;;;5078428;28;20495;-69
2022/12/31 08:03:48;;;;;;;2.83;0.68;;;;;;;;;;5079184;28;20077;-69
2022/12/31 08:06:22;;;;;;;2.67;0.80;;;;;;;;;;5099643;28;20047;-68
2022/12/31 08:09:12;;;;;;;1.90;0.75;;;;;;;;;;5081719;28;20427;-69
2022/12/31 08:11:48;;;;;;;1.63;0.70;;;;;;;;;;5081533;28;20051;-68
2022/12/31 08:14:15;;;;;;;5.20;0.80;;;;;;;;;;5095395;28;20051;-68
2022/12/31 08:16:41;;;;;;;2.38;0.93;;;;;;;;;;5102447;28;20064;-68
2022/12/31 08:19:13;;;;;;;6.93;1.23;;;;;;;;;;5098678;28;21262;-68
2022/12/31 08:21:39;;;;;;;4.65;0.77;;;;;;;;;;5086830;28;20048;-68
2022/12/31 08:24:24;;;;;;;1.27;0.50;;;;;;;;;;5094783;28;20051;-68
2022/12/31 08:27:09;;;;;;;3.17;0.77;;;;;;;;;;5096868;27;20121;-69
2022/12/31 08:29:44;;;;;;;4.03;0.70;;;;;;;;;;5104922;28;20123;-67
2022/12/31 08:32:21;;;;;;;3.30;0.50;;;;;;;;;;5094184;28;20056;-68
2022/12/31 08:34:54;;;;;;;2.90;0.80;;;;;;;;;;5091996;28;20100;-67
2022/12/31 08:37:26;;;;;;;1.95;0.50;;;;;;;;;;5090028;28;20047;-68
2022/12/31 08:40:02;;;;;;;5.43;1.15;;;;;;;;;;5097709;28;20040;-67
2022/12/31 08:42:47;;;;;;;4.03;0.73;;;;;;;;;;5097782;28;20475;-67
2022/12/31 08:45:18;;;;;;;2.83;0.70;;;;;;;;;;5096439;28;20052;-67
2022/12/31 08:47:51;;;;;;;6.13;0.68;;;;;;;;;;5091489;28;20055;-67
2022/12/31 08:50:28;;;;;;;1.70;0.55;;;;;;;;;;5088007;27;20047;-67
2022/12/31 08:52:54;;;;;;;2.10;0.77;;;;;;;;;;5100310;28;20457;-67
2022/12/31 08:55:21;;;;;;;0.63;0.60;;;;;;;;;;5087670;28;20056;-67
2022/12/31 08:58:03;;;;;;;1.48;0.60;;;;;;;;;;5108028;28;20052;-67
2022/12/31 09:00:30;;;;;;;3.67;0.75;;;;;;;;;;5088106;28;20040;-67
2022/12/31 09:03:05;;;;;;;1.45;0.60;;;;;;;;;;5085622;28;20055;-66
2022/12/31 09:05:51;;;;;;;1.75;0.80;;;;;;;;;;5086581;28;20052;-67
2022/12/31 09:08:20;;;;;;;1.90;0.80;;;;;;;;;;5101404;28;20047;-66
2022/12/31 09:10:53;;;;;;;2.55;0.90;;;;;;;;;;5105323;28;20058;-67
2022/12/31 09:13:31;;;;;;;3.17;0.82;;;;;;;;;;5102939;27;20135;-66
2022/12/31 09:16:16;;;;;;;2.55;1.63;;;;;;;;;;5082609;28;20467;-67
2022/12/31 09:18:42;;;;;;;2.17;0.80;;;;;;;;;;5084103;28;20932;-66
2022/12/31 09:21:10;;;;;;;2.75;1.52;;;;;;;;;;5102881;28;20051;-67
2022/12/31 09:23:36;;;;;;;3.63;2.53;;;;;;;;;;5104895;28;20055;-67
2022/12/31 09:26:21;;;;;;;1.92;1.05;;;;;;;;;;5089484;28;20052;-67
2022/12/31 09:28:56;;;;;;;2.50;1.10;;;;;;;;;;5092823;28;20502;-67
2022/12/31 09:31:39;;;;;;;2.47;1.20;;;;;;;;;;5090747;28;20092;-67
2022/12/31 09:34:06;;;;;;;3.38;1.10;;;;;;;;;;5099895;28;20055;-67
2022/12/31 09:36:36;;;;;;;3.10;1.33;;;;;;;;;;5091299;28;20044;-67
2022/12/31 09:39:09;;;;;;;4.05;1.90;;;;;;;;;;5108335;28;20131;-67
2022/12/31 09:41:48;;;;;;;3.53;1.30;;;;;;;;;;5097321;28;20570;-67
2022/12/31 09:44:33;;;;;;;2.17;1.40;;;;;;;;;;5094140;28;20518;-67
2022/12/31 09:47:00;;;;;;;3.20;1.23;;;;;;;;;;5089496;28;20089;-68
2022/12/31 09:49:35;;;;;;;1.58;1.00;;;;;;;;;;5102974;28;20047;-67
2022/12/31 09:52:10;;;;;;;4.97;1.23;;;;;;;;;;5097619;28;20059;-68
2022/12/31 09:54:50;;;;;;;6.88;2.35;;;;;;;;;;5099131;28;20091;-68
2022/12/31 09:57:16;;;;;;;1.70;0.80;;;;;;;;;;5101044;27;20073;-68
2022/12/31 09:59:51;;;;;;;3.30;1.10;;;;;;;;;;5085170;28;20055;-68
2022/12/31 10:02:36;;;;;;;6.57;2.97;;;;;;;;;;5091397;28;20454;-68
2022/12/31 10:05:18;;;;;;;3.28;0.90;;;;;;;;;;5087078;28;20059;-68
2022/12/31 10:07:44;;;;;;;4.60;1.15;;;;;;;;;;5090778;28;20052;-67
2022/12/31 10:10:22;;;;;;;4.47;0.93;;;;;;;;;;5079633;28;20052;-67
2022/12/31 10:12:49;;;;;;;3.88;1.35;;;;;;;;;;5089194;28;20044;-67
2022/12/31 10:15:21;;;;;;;2.15;0.80;;;;;;;;;;5095305;27;20077;-67
2022/12/31 10:18:11;;;;;;;2.85;0.98;;;;;;;;;;5083620;28;20091;-67
2022/12/31 10:20:58;;;;;;;4.25;1.08;;;;;;;;;;5080019;28;20044;-67
2022/12/31 10:23:34;;;;;;;3.65;1.10;;;;;;;;;;5079411;28;20044;-68
2022/12/31 10:26:00;;;;;;;3.53;0.80;;;;;;;;;;5097797;27;20134;-68
2022/12/31 10:28:36;;;;;;;2.65;1.10;;;;;;;;;;5086791;28;20070;-67
2022/12/31 10:31:21;;;;;;;3.10;0.90;;;;;;;;;;5093556;28;20117;-68
2022/12/31 10:34:01;;;;;;;3.58;1.10;;;;;;;;;;5085816;28;20187;-68
2022/12/31 10:36:27;;;;;;;4.22;1.25;;;;;;;;;;5091695;28;20052;-68
2022/12/31 10:38:57;;;;;;;4.25;2.53;;;;;;;;;;5086037;28;20051;-69
2022/12/31 10:41:24;;;;;;;3.95;1.23;;;;;;;;;;5082187;28;20050;-68
2022/12/31 10:44:09;;;;;;;2.35;1.13;;;;;;;;;;5094370;28;20151;-67
2022/12/31 10:46:47;;;;;;;4.95;1.55;;;;;;;;;;5097995;28;20711;-68
2022/12/31 10:49:20;;;;;;;2.38;1.05;;;;;;;;;;5107128;28;20055;-68
2022/12/31 10:51:46;;;;;;;4.60;1.73;;;;;;;;;;5095310;28;20445;-68
2022/12/31 10:54:15;;;;;;;5.32;1.27;;;;;;;;;;5087066;28;20077;-68
2022/12/31 10:56:57;;;;;;;4.93;1.38;;;;;;;;;;5087715;28;20062;-68
2022/12/31 10:59:36;;;;;;;5.40;2.05;;;;;;;;;;5092282;28;20508;-68
2022/12/31 11:02:14;;;;;;;2.53;1.52;;;;;;;;;;5090267;28;20047;-68
2022/12/31 11:05:09;;;;;;;5.93;1.60;;;;;;;;;;5085663;28;20044;-68
2022/12/31 11:07:38;;;;;;;4.45;1.40;;;;;;;;;;5088812;28;20062;-68
2022/12/31 11:10:19;;;;;;;4.88;1.90;;;;;;;;;;5095611;27;20393;-68
2022/12/31 11:12:45;;;;;;;5.88;1.30;;;;;;;;;;5097979;28;20069;-69
2022/12/31 11:15:16;;;;;;;8.13;2.33;;;;;;;;;;5088643;28;20669;-68
2022/12/31 11:17:45;;;;;;;2.33;1.25;;;;;;;;;;5097039;28;20047;-69
2022/12/31 11:20:31;;;;;;;3.35;1.20;;;;;;;;;;5095457;27;20812;-68
2022/12/31 11:23:10;;;;;;;11.93;2.67;;;;;;;;;;5081979;28;20063;-69
2022/12/31 11:25:37;;;;;;;3.80;2.03;;;;;;;;;;5102768;28;20046;-69
2022/12/31 11:28:19;;;;;;;7.13;2.20;;;;;;;;;;5093792;28;20052;-69
2022/12/31 11:30:51;;;;;;;7.95;1.90;;;;;;;;;;5095187;28;20465;-69
2022/12/31 11:33:27;;;;;;;5.88;1.80;;;;;;;;;;5092471;28;20135;-68
2022/12/31 11:36:07;;;;;;;5.18;2.50;;;;;;;;;;5081178;28;20051;-68
2022/12/31 11:38:39;;;;;;;7.57;2.00;;;;;;;;;;5086099;28;20056;-69
2022/12/31 11:41:24;;;;;;;9.02;4.70;;;;;;;;;;5088163;28;20097;-70
2022/12/31 11:44:09;;;;;;;5.70;1.92;;;;;;;;;;5098591;28;20420;-70
2022/12/31 11:46:38;;;;;;;5.30;1.42;;;;;;;;;;5098840;28;20591;-69
2022/12/31 11:49:23;;;;;;;4.93;1.38;;;;;;;;;;5092950;28;20083;-68
2022/12/31 11:51:59;;;;;;;5.13;1.50;;;;;;;;;;5064107;28;20044;-69
2022/12/31 11:54:25;;;;;;;6.68;1.38;;;;;;;;;;5084511;28;20047;-69
2022/12/31 11:57:01;;;;;;;3.50;1.00;;;;;;;;;;5094271;28;20055;-69
2022/12/31 11:59:27;;;;;;;4.53;1.25;;;;;;;;;;5114318;27;20055;-69
2022/12/31 12:01:57;;;;;;;4.65;1.20;;;;;;;;;;5089086;28;20066;-69
2022/12/31 12:04:23;;;;;;;7.57;1.60;;;;;;;;;;5087712;28;20058;-71
2022/12/31 12:06:51;;;;;;;5.60;1.40;;;;;;;;;;5097063;28;20147;-69
2022/12/31 12:09:38;;;;;;;4.30;1.58;;;;;;;;;;5106020;28;20063;-71
2022/12/31 12:12:05;;;;;;;4.88;1.27;;;;;;;;;;5092007;28;20420;-69
2022/12/31 12:14:34;;;;;;;5.28;1.33;;;;;;;;;;5091029;28;20046;-70
2022/12/31 12:17:02;;;;;;;5.50;1.55;;;;;;;;;;5092357;28;20058;-71
2022/12/31 12:19:32;;;;;;;5.30;1.45;;;;;;;;;;5088432;28;20492;-71
2022/12/31 12:22:07;;;;;;;5.13;1.50;;;;;;;;;;5095646;28;20090;-69
2022/12/31 12:24:50;;;;;;;7.68;2.47;;;;;;;;;;5080666;28;20047;-69
2022/12/31 12:27:20;;;;;;;6.13;2.28;;;;;;;;;;5090844;28;20756;-69
2022/12/31 12:29:47;;;;;;;4.38;1.48;;;;;;;;;;5081852;28;20093;-69
2022/12/31 12:32:23;;;;;;;7.63;1.67;;;;;;;;;;5088193;28;20047;-68
2022/12/31 12:34:50;;;;;;;7.45;1.80;;;;;;;;;;5102130;28;20083;-68
2022/12/31 12:37:22;;;;;;;5.57;1.35;;;;;;;;;;5090005;28;20499;-68
2022/12/31 12:39:56;;;;;;;10.57;1.90;;;;;;;;;;5102714;28;20381;-68
2022/12/31 12:42:22;;;;;;;5.88;1.85;;;;;;;;;;5093983;27;20047;-68
2022/12/31 12:44:59;;;;;;;7.53;3.15;;;;;;;;;;5099871;28;20074;-67
2022/12/31 12:47:25;;;;;;;7.03;2.22;;;;;;;;;;5095649;28;20050;-67
2022/12/31 12:49:53;;;;;;;4.90;1.98;;;;;;;;;;5106478;28;20276;-68
2022/12/31 12:52:26;;;;;;;5.75;1.70;;;;;;;;;;5104841;28;20629;-67
2022/12/31 12:54:55;;;;;;;11.73;5.55;;;;;;;;;;5081926;28;20073;-67
2022/12/31 12:57:31;;;;;;;10.05;3.70;;;;;;;;;;5094722;28;20073;-68
2022/12/31 13:00:03;;;;;;;6.30;2.67;;;;;;;;;;5092478;28;20078;-68
2022/12/31 13:02:41;;;;;;;7.93;2.72;;;;;;;;;;5103300;28;20162;-67
2022/12/31 13:05:29;;;;;;;9.60;2.97;;;;;;;;;;5095943;28;20089;-67
2022/12/31 13:08:02;;;;;;;7.13;2.75;;;;;;;;;;5105788;28;20125;-68
2022/12/31 13:10:47;;;;;;;10.48;3.20;;;;;;;;;;5092896;28;20062;-68
2022/12/31 13:13:32;;;;;;;10.88;3.35;;;;;;;;;;5092097;27;20043;-68
2022/12/31 13:15:58;;;;;;;7.70;3.60;;;;;;;;;;5085165;28;20066;-68
2022/12/31 13:18:34;;;;;;;9.52;2.70;;;;;;;;;;5099394;28;20360;-68
2022/12/31 13:21:19;;;;;;;8.02;2.95;;;;;;;;;;5099788;28;20484;-68
2022/12/31 13:23:52;;;;;;;5.70;2.30;;;;;;;;;;5095338;28;20105;-68
2022/12/31 13:26:30;;;;;;;6.35;2.90;;;;;;;;;;5086570;27;20074;-68
2022/12/31 13:28:57;;;;;;;8.05;2.10;;;;;;;;;;5093277;28;20104;-69
2022/12/31 13:31:30;;;;;;;7.90;4.95;;;;;;;;;;5096882;28;20127;-68
2022/12/31 13:34:18;;;;;;;6.75;3.83;;;;;;;;;;5095163;28;20052;-69
2022/12/31 13:36:46;;;;;;;5.53;1.60;;;;;;;;;;5083793;28;20043;-68
2022/12/31 13:39:17;;;;;;;8.63;1.55;;;;;;;;;;5082497;28;20043;-68
2022/12/31 13:41:48;;;;;;;5.32;2.30;;;;;;;;;;5094245;28;20051;-68
2022/12/31 13:44:17;;;;;;;8.05;2.28;;;;;;;;;;5099985;27;20055;-68
2022/12/31 13:47:11;;;;;;;5.90;1.88;;;;;;;;;;5094755;27;20090;-68
2022/12/31 13:49:56;;;;;;;8.00;2.78;;;;;;;;;;5065930;27;20051;-67
2022/12/31 13:52:40;;;;;;;7.88;2.30;;;;;;;;;;5090232;28;20052;-68
2022/12/31 13:55:17;;;;;;;5.97;2.70;;;;;;;;;;5087525;27;20052;-67
2022/12/31 13:57:52;;;;;;;5.43;2.47;;;;;;;;;;5099007;27;20422;-67
2022/12/31 14:00:23;;;;;;;7.22;2.40;;;;;;;;;;5099452;28;20560;-68
2022/12/31 14:03:07;;;;;;;6.85;2.60;;;;;;;;;;5076784;28;20062;-68
2022/12/31 14:05:39;;;;;;;7.55;2.05;;;;;;;;;;5089486;28;20317;-68
2022/12/31 14:08:05;;;;;;;7.85;2.15;;;;;;;;;;5083436;28;20047;-68
2022/12/31 14:10:50;;;;;;;7.85;2.97;;;;;;;;;;5088684;27;20055;-68
2022/12/31 14:13:25;;;;;;;10.23;2.88;;;;;;;;;;5101681;28;20090;-68
2022/12/31 14:16:02;;;;;;;6.35;2.22;;;;;;;;;;5085660;28;20060;-68
2022/12/31 14:18:36;;;;;;;9.38;2.65;;;;;;;;;;5098897;28;20528;-68
2022/12/31 14:21:07;;;;;;;6.50;1.95;;;;;;;;;;5086651;28;20105;-69
2022/12/31 14:23:41;;;;;;;6.13;1.90;;;;;;;;;;5092204;28;20050;-69
2022/12/31 14:26:08;;;;;;;7.97;2.60;;;;;;;;;;5082977;28;20047;-69
2022/12/31 14:28:40;;;;;;;5.40;1.70;;;;;;;;;;5090904;28;20508;-69
2022/12/31 14:31:14;;;;;;;8.70;2.27;;;;;;;;;;5086654;28;20158;-68
2022/12/31 14:33:54;;;;;;;10.00;2.20;;;;;;;;;;5101654;28;20054;-69
2022/12/31 14:36:27;;;;;;;6.63;2.22;;;;;;;;;;5099063;28;20054;-69
2022/12/31 14:38:57;;;;;;;7.20;1.58;;;;;;;;;;5067441;28;20233;-68
2022/12/31 14:41:31;;;;;;;7.28;1.90;;;;;;;;;;5093965;28;20040;-69
2022/12/31 14:44:17;;;;;;;5.45;2.08;;;;;;;;;;5094527;28;20048;-69
2022/12/31 14:47:02;;;;;;;9.43;2.67;;;;;;;;;;5100130;28;20059;-68
2022/12/31 14:49:35;;;;;;;6.53;1.83;;;;;;;;;;5091866;27;20040;-69
2022/12/31 14:52:08;;;;;;;12.90;2.75;;;;;;;;;;5087337;28;20074;-68
2022/12/31 14:54:35;;;;;;;8.75;2.60;;;;;;;;;;5077241;28;20047;-69
2022/12/31 14:57:20;;;;;;;12.13;2.67;;;;;;;;;;5098135;28;20048;-69
2022/12/31 14:59:56;;;;;;;7.65;2.55;;;;;;;;;;5098409;28;20044;-68
2022/12/31 15:02:31;;;;;;;11.23;2.35;;;;;;;;;;5096244;28;20066;-69
2022/12/31 15:05:12;;;;;;;10.85;2.30;;;;;;;;;;5095457;28;20048;-69
2022/12/31 15:07:47;;;;;;;11.95;3.60;;;;;;;;;;5089370;28;20088;-68
2022/12/31 15:10:21;;;;;;;7.88;2.33;;;;;;;;;;5075326;28;20052;-68
2022/12/31 15:12:55;;;;;;;8.55;2.13;;;;;;;;;;5093652;28;20054;-68
2022/12/31 15:15:31;;;;;;;12.73;2.00;;;;;;;;;;5097301;28;20105;-69